Terminal Aerodrome Forecast
Issued by NWS

Home | Current Version | Previous Version | Graphics & Text | Print | Product List | Glossary On
Versions: 1 2 3 4 5 6 7 8 9 10 11 12 13 14 15 16
000
FTUS43 KGRB 290520
TAFATW
TAF
KATW 290520Z 2906/3006 25008KT P6SM SCT070 BKN100
     FM291500 26016G26KT P6SM VCSH BKN040
     FM300200 26012KT P6SM VCSH BKN035 BKN070=

USA.gov is the U.S. government's official web portal to all federal, state and local government web resources and services.